Time;durP1;ratioP1;P1;durP2;ratioP2;P2;SDS_P1;SDS_P2;PMS_P1;PMS_P2;Temp;Humidity;BMP_temperature;BMP_pressure;BME280_temperature;BME280_humidity;BME280_pressure;Samples;Min_cycle;Max_cycle;Signal;HPM_P1;HPM_P2
2022/11/28 00:01:35;;;;;;;61.37;44.13;;;6.00;99.90;;;;;;5071578;28;20209;-51
2022/11/28 00:04:04;;;;;;;35.27;27.03;;;6.00;99.90;;;;;;5070215;28;20682;-52
2022/11/28 00:06:32;;;;;;;66.60;47.83;;;6.00;99.90;;;;;;5070856;28;20800;-51
2022/11/28 00:09:02;;;;;;;48.37;34.67;;;6.00;99.90;;;;;;5070767;28;20254;-50
2022/11/28 00:11:30;;;;;;;48.97;34.20;;;5.90;99.90;;;;;;5070900;28;20292;-51
2022/11/28 00:13:58;;;;;;;56.13;47.90;;;6.00;99.90;;;;;;5070713;28;20209;-51
2022/11/28 00:16:26;;;;;;;44.63;33.03;;;6.00;99.90;;;;;;5070256;28;20231;-52
2022/11/28 00:18:55;;;;;;;97.13;56.93;;;6.00;99.90;;;;;;5068688;28;20690;-52
2022/11/28 00:21:23;;;;;;;83.80;47.87;;;6.00;99.90;;;;;;5068861;28;20309;-51
2022/11/28 00:23:52;;;;;;;63.30;35.77;;;6.00;99.90;;;;;;5082515;28;20231;-51
2022/11/28 00:26:24;;;;;;;44.87;38.80;;;6.00;99.90;;;;;;5070643;28;20316;-51
2022/11/28 00:28:52;;;;;;;30.27;22.90;;;6.00;99.90;;;;;;5070671;28;20938;-51
2022/11/28 00:31:22;;;;;;;35.60;32.23;;;6.10;99.90;;;;;;5070664;28;20264;-51
2022/11/28 00:33:50;;;;;;;100.97;48.87;;;6.10;99.90;;;;;;5070586;28;20310;-52
2022/11/28 00:36:20;;;;;;;115.17;67.93;;;6.00;99.90;;;;;;5070409;28;20252;-51
2022/11/28 00:38:48;;;;;;;40.93;36.00;;;5.90;99.90;;;;;;5070548;28;20671;-51
2022/11/28 00:41:18;;;;;;;68.03;49.17;;;5.90;99.90;;;;;;5067652;28;20329;-52
2022/11/28 00:43:49;;;;;;;50.80;40.20;;;5.90;99.90;;;;;;5070081;28;20301;-53
2022/11/28 00:46:19;;;;;;;30.33;23.83;;;5.90;99.90;;;;;;5070704;28;20662;-53
2022/11/28 00:48:48;;;;;;;165.53;76.57;;;6.00;99.90;;;;;;5070282;28;20206;-52
2022/11/28 00:51:18;;;;;;;103.87;50.80;;;5.90;99.90;;;;;;5070582;28;20295;-52
2022/11/28 00:53:48;;;;;;;49.23;37.37;;;6.00;99.90;;;;;;5070295;28;20211;-52
2022/11/28 00:56:18;;;;;;;115.47;77.27;;;6.00;99.90;;;;;;5069924;28;20312;-52
2022/11/28 00:58:48;;;;;;;67.00;42.37;;;5.90;99.90;;;;;;5066548;28;20228;-51
2022/11/28 01:01:19;;;;;;;49.20;44.13;;;5.90;99.90;;;;;;5069387;28;20262;-52
2022/11/28 01:03:49;;;;;;;151.20;76.07;;;5.90;99.90;;;;;;5069745;28;20305;-51
2022/11/28 01:06:21;;;;;;;31.77;28.23;;;5.90;99.90;;;;;;5069692;28;20400;-52
2022/11/28 01:08:50;;;;;;;56.70;50.43;;;5.90;99.90;;;;;;5070352;28;20659;-52
2022/11/28 01:11:18;;;;;;;46.73;41.97;;;5.90;99.90;;;;;;5069682;28;20692;-52
2022/11/28 01:13:48;;;;;;;82.03;48.40;;;5.90;99.90;;;;;;5062278;28;20616;-52
2022/11/28 01:16:16;;;;;;;60.77;36.63;;;5.80;99.90;;;;;;5069339;28;20318;-52
2022/11/28 01:18:44;;;;;;;135.50;67.50;;;5.80;99.90;;;;;;5068771;28;20217;-52
2022/11/28 01:21:12;;;;;;;39.77;31.10;;;5.80;99.90;;;;;;5068302;28;20228;-51
2022/11/28 01:23:40;;;;;;;197.47;73.53;;;5.80;99.90;;;;;;5068691;28;20226;-51
2022/11/28 01:26:11;;;;;;;69.43;38.47;;;5.80;99.90;;;;;;5068345;28;20321;-52
2022/11/28 01:28:39;;;;;;;91.60;45.47;;;5.80;99.90;;;;;;5068357;28;20321;-52
2022/11/28 01:31:11;;;;;;;137.60;54.13;;;5.70;99.90;;;;;;5068192;28;20317;-52
2022/11/28 01:33:39;;;;;;;82.80;43.87;;;5.70;99.90;;;;;;5068432;28;20212;-52
2022/11/28 01:36:08;;;;;;;49.63;35.60;;;5.70;99.90;;;;;;5067574;28;20309;-51
2022/11/28 01:38:36;;;;;;;94.43;66.03;;;5.70;99.90;;;;;;5068909;28;20293;-52
2022/11/28 01:41:04;;;;;;;59.33;35.77;;;5.70;99.90;;;;;;5068728;28;20720;-52
2022/11/28 01:43:32;;;;;;;109.87;52.93;;;5.70;99.90;;;;;;5068683;28;20905;-52
2022/11/28 01:46:02;;;;;;;70.60;54.40;;;5.70;99.90;;;;;;5069546;28;20279;-52
2022/11/28 01:48:34;;;;;;;43.50;34.73;;;5.70;99.90;;;;;;5069099;28;20204;-51
2022/11/28 01:51:07;;;;;;;34.53;30.87;;;5.70;99.90;;;;;;5068338;28;20780;-51
2022/11/28 01:53:41;;;;;;;63.80;49.87;;;5.60;99.90;;;;;;5068604;28;20289;-52
2022/11/28 01:56:14;;;;;;;38.50;34.77;;;5.60;99.90;;;;;;5069045;28;20227;-52
2022/11/28 01:58:46;;;;;;;56.07;48.50;;;5.60;99.90;;;;;;5069319;28;20197;-52
2022/11/28 02:01:16;;;;;;;46.37;39.03;;;5.60;99.90;;;;;;5069217;28;20239;-51
2022/11/28 02:03:48;;;;;;;38.37;34.43;;;5.60;99.90;;;;;;5068750;28;20246;-51
2022/11/28 02:06:19;;;;;;;138.43;72.17;;;5.60;99.90;;;;;;5068809;28;20672;-51
2022/11/28 02:08:50;;;;;;;30.27;27.03;;;5.60;99.90;;;;;;5068802;28;20294;-51
2022/11/28 02:11:40;;;;;;;58.40;52.10;;;5.60;99.90;;;;;;5068881;28;20289;-52
2022/11/28 02:14:21;;;;;;;38.83;34.70;;;5.60;99.90;;;;;;5068483;28;20243;-52
2022/11/28 02:17:04;;;;;;;93.93;57.80;;;5.60;99.90;;;;;;5068971;28;20225;-52
2022/11/28 02:20:10;;;;;;;39.27;34.57;;;5.60;99.90;;;;;;5068018;28;20289;-52
2022/11/28 02:22:42;;;;;;;104.43;64.23;;;5.60;99.90;;;;;;5027307;28;20221;-52
2022/11/28 02:25:31;;;;;;;95.13;55.37;;;5.50;99.90;;;;;;5063430;28;20197;-51
2022/11/28 02:28:30;;;;;;;36.67;31.67;;;5.40;99.90;;;;;;5068211;28;20236;-52
2022/11/28 02:31:07;;;;;;;38.93;27.77;;;5.40;99.90;;;;;;5059402;28;20252;-52
2022/11/28 02:33:42;;;;;;;45.70;34.17;;;5.40;99.90;;;;;;5068307;28;20217;-52
2022/11/28 02:36:15;;;;;;;132.13;54.37;;;5.40;99.90;;;;;;5068204;28;20229;-52
2022/11/28 02:38:56;;;;;;;33.33;29.90;;;5.50;99.90;;;;;;5070936;28;20202;-51
2022/11/28 02:41:31;;;;;;;54.93;32.47;;;5.50;99.90;;;;;;5072286;28;20311;-52
2022/11/28 02:44:08;;;;;;;61.57;38.73;;;5.50;99.90;;;;;;5057929;28;20836;-52
2022/11/28 02:46:47;;;;;;;113.10;43.83;;;5.60;99.90;;;;;;5070937;28;20231;-52
2022/11/28 02:49:22;;;;;;;40.23;30.83;;;5.60;99.90;;;;;;5059614;28;20270;-52
2022/11/28 02:51:54;;;;;;;44.93;38.40;;;5.60;99.90;;;;;;5072012;28;20204;-52
2022/11/28 02:54:25;;;;;;;53.53;40.57;;;5.60;99.90;;;;;;5072776;28;20295;-52
2022/11/28 02:56:54;;;;;;;57.67;51.30;;;5.60;99.90;;;;;;5071819;28;20303;-51
2022/11/28 02:59:47;;;;;;;44.33;39.23;;;5.50;99.90;;;;;;5072364;28;20290;-50
2022/11/28 03:02:19;;;;;;;64.43;42.70;;;5.50;99.90;;;;;;5071607;28;20680;-52
2022/11/28 03:05:00;;;;;;;37.03;32.73;;;5.50;99.90;;;;;;5071779;28;20224;-51
2022/11/28 03:07:49;;;;;;;43.73;34.33;;;5.60;99.90;;;;;;5072232;28;20323;-50
2022/11/28 03:10:24;;;;;;;54.97;44.33;;;5.60;99.90;;;;;;5060868;28;20206;-52
2022/11/28 03:13:03;;;;;;;37.30;33.50;;;5.60;99.90;;;;;;5071495;28;20738;-52
2022/11/28 03:15:39;;;;;;;39.37;27.23;;;5.60;99.90;;;;;;5072077;28;20288;-51
2022/11/28 03:18:13;;;;;;;52.23;36.13;;;5.60;99.90;;;;;;5071799;28;20216;-52
2022/11/28 03:20:48;;;;;;;68.57;44.53;;;5.60;99.90;;;;;;5072003;28;20198;-52
2022/11/28 03:23:19;;;;;;;52.70;47.10;;;5.60;99.90;;;;;;5067072;28;20928;-51
2022/11/28 03:25:57;;;;;;;99.37;50.53;;;5.60;99.90;;;;;;5072039;28;20245;-51
2022/11/28 03:28:30;;;;;;;38.63;34.13;;;5.60;99.90;;;;;;5071179;28;20290;-50
2022/11/28 03:31:01;;;;;;;37.73;32.13;;;5.60;99.90;;;;;;5071574;28;20209;-52
2022/11/28 03:33:33;;;;;;;131.13;59.10;;;5.60;99.90;;;;;;5071417;28;20209;-51
2022/11/28 03:36:07;;;;;;;129.50;63.03;;;5.60;99.90;;;;;;5066256;28;20259;-52
2022/11/28 03:38:39;;;;;;;48.17;43.07;;;5.60;99.90;;;;;;5071694;28;20236;-51
2022/11/28 03:41:14;;;;;;;38.73;34.77;;;5.60;99.90;;;;;;5071759;28;20203;-51
2022/11/28 03:43:46;;;;;;;36.80;28.30;;;5.60;99.90;;;;;;5052385;28;20270;-51
2022/11/28 03:46:17;;;;;;;68.47;37.50;;;5.70;99.90;;;;;;5071172;28;20311;-52
2022/11/28 03:48:49;;;;;;;232.43;118.80;;;5.70;99.90;;;;;;5071670;28;20300;-51
2022/11/28 03:51:24;;;;;;;34.33;27.83;;;5.70;99.90;;;;;;5070395;28;20943;-52
2022/11/28 03:53:56;;;;;;;55.37;42.80;;;5.60;99.90;;;;;;5070975;28;20303;-52
2022/11/28 03:56:34;;;;;;;35.13;31.67;;;5.70;99.90;;;;;;5071476;28;20304;-51
2022/11/28 03:59:08;;;;;;;32.50;23.93;;;5.70;99.90;;;;;;5071168;28;20210;-50
2022/11/28 04:01:47;;;;;;;67.50;38.77;;;5.70;99.90;;;;;;5071192;28;20251;-51
2022/11/28 04:04:24;;;;;;;32.60;24.33;;;5.70;99.90;;;;;;5069641;28;20362;-52
2022/11/28 04:06:58;;;;;;;57.40;43.03;;;5.70;99.90;;;;;;5058578;28;20324;-51
2022/11/28 04:09:39;;;;;;;46.77;36.90;;;5.70;99.90;;;;;;5070919;28;20296;-52
2022/11/28 04:12:14;;;;;;;50.47;29.83;;;5.70;99.90;;;;;;5069931;28;20283;-51
2022/11/28 04:14:47;;;;;;;41.30;37.20;;;5.70;99.90;;;;;;5070965;28;20645;-51
2022/11/28 04:17:19;;;;;;;42.30;37.40;;;5.70;99.90;;;;;;5070913;28;20231;-51
2022/11/28 04:19:51;;;;;;;49.07;44.40;;;5.80;99.90;;;;;;5070752;28;20658;-51
2022/11/28 04:22:24;;;;;;;88.33;62.40;;;5.80;99.90;;;;;;5065387;28;20225;-51
2022/11/28 04:24:55;;;;;;;100.70;52.17;;;5.70;99.90;;;;;;5070968;28;20653;-51
2022/11/28 04:27:28;;;;;;;81.60;54.70;;;5.80;99.90;;;;;;5070601;28;20311;-52
2022/11/28 04:30:00;;;;;;;65.10;45.37;;;5.70;99.90;;;;;;5064596;28;20314;-51
2022/11/28 04:32:32;;;;;;;105.17;48.50;;;5.70;99.90;;;;;;5070287;28;20201;-51
2022/11/28 04:35:05;;;;;;;71.97;49.87;;;5.70;99.90;;;;;;5055420;28;20770;-52
2022/11/28 04:37:36;;;;;;;119.93;70.27;;;5.70;99.90;;;;;;5070817;28;20254;-51
2022/11/28 04:40:08;;;;;;;32.70;28.00;;;5.60;99.90;;;;;;5064737;28;20240;-50
2022/11/28 04:42:39;;;;;;;105.37;57.73;;;5.60;99.90;;;;;;5070357;28;20240;-51
2022/11/28 04:45:13;;;;;;;83.40;42.33;;;5.70;99.90;;;;;;5069896;28;20237;-51
2022/11/28 04:47:42;;;;;;;54.73;34.77;;;5.60;99.90;;;;;;5069877;28;20279;-51
2022/11/28 04:50:12;;;;;;;46.10;39.20;;;5.60;99.90;;;;;;5069956;28;20292;-52
2022/11/28 04:52:49;;;;;;;52.30;40.50;;;5.70;99.90;;;;;;5083061;28;20652;-51
2022/11/28 04:55:27;;;;;;;193.47;67.63;;;5.70;99.90;;;;;;5070246;28;20252;-52
2022/11/28 04:58:04;;;;;;;47.47;40.30;;;5.70;99.90;;;;;;5070114;28;20299;-52
2022/11/28 05:00:35;;;;;;;110.03;54.03;;;5.70;99.90;;;;;;5065650;28;20294;-52
2022/11/28 05:03:05;;;;;;;51.23;36.00;;;5.70;99.90;;;;;;5068917;28;20230;-51
2022/11/28 05:05:43;;;;;;;136.93;61.97;;;5.60;99.90;;;;;;5069809;28;20736;-52
2022/11/28 05:08:12;;;;;;;56.73;41.50;;;5.60;99.90;;;;;;5069331;28;20731;-52
2022/11/28 05:10:41;;;;;;;29.43;25.73;;;5.60;99.90;;;;;;5069180;28;20371;-52
2022/11/28 05:13:09;;;;;;;73.00;62.20;;;5.60;99.90;;;;;;5065677;28;20205;-52
2022/11/28 05:15:38;;;;;;;51.87;41.57;;;5.60;99.90;;;;;;5069496;28;20229;-51
2022/11/28 05:18:07;;;;;;;108.67;55.43;;;5.60;99.90;;;;;;5069133;28;20754;-52
2022/11/28 05:20:36;;;;;;;45.83;40.50;;;5.60;99.90;;;;;;5068265;28;20308;-51
2022/11/28 05:23:04;;;;;;;45.97;40.93;;;5.60;99.90;;;;;;5068941;28;20330;-52
2022/11/28 05:25:34;;;;;;;31.93;26.50;;;5.60;99.90;;;;;;5069453;28;20293;-52
2022/11/28 05:28:02;;;;;;;118.47;60.57;;;5.60;99.90;;;;;;5067964;28;20235;-51
2022/11/28 05:30:30;;;;;;;52.17;40.47;;;5.60;99.90;;;;;;5068049;28;20285;-52
2022/11/28 05:32:59;;;;;;;65.23;46.13;;;5.60;99.90;;;;;;5065457;28;20644;-52
2022/11/28 05:35:27;;;;;;;48.87;34.63;;;5.50;99.90;;;;;;5066911;28;20222;-50
2022/11/28 05:37:55;;;;;;;64.83;44.77;;;5.50;99.90;;;;;;5067755;28;20206;-51
2022/11/28 05:40:23;;;;;;;54.20;46.40;;;5.50;99.90;;;;;;5067243;28;20255;-51
2022/11/28 05:42:53;;;;;;;45.43;40.60;;;5.50;99.90;;;;;;5067159;28;20223;-52
2022/11/28 05:45:21;;;;;;;113.17;54.47;;;5.50;99.90;;;;;;5075112;28;20217;-51
2022/11/28 05:47:49;;;;;;;38.30;29.77;;;5.40;99.90;;;;;;5068764;28;20663;-52
2022/11/28 05:50:17;;;;;;;45.00;40.20;;;5.40;99.90;;;;;;5062719;28;20208;-52
2022/11/28 05:52:45;;;;;;;226.03;98.47;;;5.40;99.90;;;;;;5055536;28;20197;-51
2022/11/28 05:55:14;;;;;;;48.70;40.83;;;5.40;99.90;;;;;;5067375;28;20243;-52
2022/11/28 05:57:42;;;;;;;28.73;25.60;;;5.50;99.90;;;;;;5064882;28;20230;-52
2022/11/28 06:00:13;;;;;;;77.80;53.40;;;5.50;99.90;;;;;;5065329;28;20208;-51
2022/11/28 06:02:41;;;;;;;139.77;80.47;;;5.40;99.90;;;;;;5064391;28;20242;-51
2022/11/28 06:05:09;;;;;;;189.40;76.50;;;5.40;99.90;;;;;;5067038;28;20217;-51
2022/11/28 06:07:57;;;;;;;55.43;42.43;;;5.40;99.90;;;;;;5068520;28;20220;-51
2022/11/28 06:10:26;;;;;;;43.80;30.97;;;5.40;99.90;;;;;;5068201;28;20587;-52
2022/11/28 06:12:54;;;;;;;93.17;53.10;;;5.40;99.90;;;;;;5067390;28;20217;-51
2022/11/28 06:15:23;;;;;;;54.60;29.90;;;5.40;99.90;;;;;;5062924;28;20574;-52
2022/11/28 06:17:51;;;;;;;53.33;46.27;;;5.30;99.90;;;;;;5064385;28;20292;-52
2022/11/28 06:20:19;;;;;;;111.27;52.47;;;5.40;99.90;;;;;;5067819;28;20299;-51
2022/11/28 06:22:47;;;;;;;55.17;44.43;;;5.40;99.90;;;;;;5066668;28;20307;-52
2022/11/28 06:25:15;;;;;;;38.63;34.47;;;5.40;99.90;;;;;;5068595;28;20289;-52
2022/11/28 06:27:43;;;;;;;43.57;36.93;;;5.40;99.90;;;;;;5066890;28;20285;-53
2022/11/28 06:30:12;;;;;;;54.33;40.03;;;5.40;99.90;;;;;;5067091;28;20679;-53
2022/11/28 06:32:42;;;;;;;59.23;52.40;;;5.40;99.90;;;;;;5067433;28;20209;-51
2022/11/28 06:35:10;;;;;;;43.17;35.43;;;5.30;99.90;;;;;;5067278;28;20206;-51
2022/11/28 06:37:38;;;;;;;42.40;36.53;;;5.40;99.90;;;;;;5067174;28;20315;-52
2022/11/28 06:40:07;;;;;;;65.90;41.33;;;5.30;99.90;;;;;;5068265;28;20198;-52
2022/11/28 06:42:36;;;;;;;56.50;44.40;;;5.40;99.90;;;;;;5067283;28;20210;-53
2022/11/28 06:45:04;;;;;;;41.80;30.23;;;5.30;99.90;;;;;;5067964;28;20206;-52
2022/11/28 06:47:32;;;;;;;66.70;48.53;;;5.30;99.90;;;;;;5067478;28;20309;-53
2022/11/28 06:50:02;;;;;;;45.40;37.47;;;5.30;99.90;;;;;;5067471;28;20203;-52
2022/11/28 06:52:30;;;;;;;89.07;47.83;;;5.30;99.90;;;;;;5063651;28;20300;-51
2022/11/28 06:54:58;;;;;;;92.20;50.23;;;5.30;99.90;;;;;;5062902;28;20256;-52
2022/11/28 06:57:26;;;;;;;34.90;26.63;;;5.20;99.90;;;;;;5064742;28;20667;-52
2022/11/28 06:59:55;;;;;;;44.00;36.80;;;5.20;99.90;;;;;;5067741;28;20212;-52
2022/11/28 07:02:24;;;;;;;70.93;33.93;;;5.20;99.90;;;;;;5066822;28;20239;-53
2022/11/28 07:04:52;;;;;;;58.63;38.10;;;5.30;99.90;;;;;;5068124;28;20226;-52
2022/11/28 07:07:21;;;;;;;39.77;35.77;;;5.30;99.90;;;;;;5066394;28;20328;-50
2022/11/28 07:09:50;;;;;;;49.33;43.63;;;5.30;99.90;;;;;;5061666;28;20208;-52
2022/11/28 07:12:19;;;;;;;109.53;59.00;;;5.30;99.90;;;;;;5066832;28;20661;-52
2022/11/28 07:14:47;;;;;;;86.03;50.40;;;5.30;99.90;;;;;;5068751;28;20203;-52
2022/11/28 07:17:15;;;;;;;60.07;53.43;;;5.30;99.90;;;;;;5067461;28;20225;-52
2022/11/28 07:19:43;;;;;;;45.07;38.23;;;5.20;99.90;;;;;;5067460;28;20202;-52
2022/11/28 07:22:17;;;;;;;50.73;37.60;;;5.20;99.90;;;;;;5070515;28;20193;-50
2022/11/28 07:24:47;;;;;;;143.73;64.77;;;5.20;99.90;;;;;;5067180;28;20210;-52
2022/11/28 07:27:15;;;;;;;68.93;36.20;;;5.20;99.90;;;;;;5070838;28;20669;-52
2022/11/28 07:29:43;;;;;;;72.60;51.73;;;5.10;99.90;;;;;;5063296;28;20757;-52
2022/11/28 07:32:12;;;;;;;46.53;36.40;;;5.20;99.90;;;;;;5070524;28;20293;-52
2022/11/28 07:34:41;;;;;;;71.20;57.80;;;5.20;99.90;;;;;;5069348;28;20224;-52
2022/11/28 07:37:15;;;;;;;103.93;50.70;;;5.20;99.90;;;;;;5070581;28;20231;-52
2022/11/28 07:39:43;;;;;;;56.60;46.13;;;5.20;99.90;;;;;;5067249;28;20214;-52
2022/11/28 07:42:13;;;;;;;61.00;46.53;;;5.20;99.90;;;;;;5063965;28;20222;-52
2022/11/28 07:44:41;;;;;;;53.23;43.93;;;5.20;99.90;;;;;;5069138;28;20223;-52
2022/11/28 07:47:09;;;;;;;54.17;40.63;;;5.20;99.90;;;;;;5057559;28;20649;-51
2022/11/28 07:49:37;;;;;;;48.37;40.87;;;5.20;99.90;;;;;;5073793;28;20242;-52
2022/11/28 07:52:05;;;;;;;55.93;46.67;;;5.20;99.90;;;;;;5070360;28;20583;-52
2022/11/28 07:54:33;;;;;;;109.30;50.13;;;5.20;99.90;;;;;;5069502;28;20195;-51
2022/11/28 07:57:01;;;;;;;119.67;49.40;;;5.10;99.90;;;;;;5067454;28;20313;-52
2022/11/28 07:59:46;;;;;;;117.40;52.70;;;5.10;99.90;;;;;;5064955;28;20204;-52
2022/11/28 08:02:14;;;;;;;73.00;56.53;;;5.20;99.90;;;;;;5068892;28;20271;-51
2022/11/28 08:04:42;;;;;;;129.53;58.20;;;5.20;99.90;;;;;;5061983;28;20226;-52
2022/11/28 08:07:18;;;;;;;71.87;42.03;;;5.20;99.90;;;;;;5066055;28;20260;-53
2022/11/28 08:09:46;;;;;;;40.60;32.07;;;5.20;99.90;;;;;;5069931;28;20233;-53
2022/11/28 08:12:14;;;;;;;65.53;40.17;;;5.30;99.90;;;;;;5069322;28;20233;-52
2022/11/28 08:14:42;;;;;;;72.83;46.77;;;5.20;99.90;;;;;;5069967;28;20281;-52
2022/11/28 08:17:12;;;;;;;97.57;45.37;;;5.30;99.90;;;;;;5071038;28;20230;-53
2022/11/28 08:19:41;;;;;;;46.20;41.20;;;5.30;99.90;;;;;;5066528;28;20244;-51
2022/11/28 08:22:09;;;;;;;107.93;43.93;;;5.30;99.90;;;;;;5067347;28;20212;-52
2022/11/28 08:24:37;;;;;;;44.40;38.63;;;5.20;99.90;;;;;;5068542;28;20243;-53
2022/11/28 08:27:05;;;;;;;62.17;46.80;;;5.20;99.90;;;;;;5070369;28;20229;-52
2022/11/28 08:29:33;;;;;;;74.97;46.97;;;5.20;99.90;;;;;;5065817;28;20256;-53
2022/11/28 08:32:01;;;;;;;79.77;42.43;;;5.20;99.90;;;;;;5070202;28;20215;-52
2022/11/28 08:34:31;;;;;;;105.70;55.93;;;5.20;99.90;;;;;;5069129;28;20249;-53
2022/11/28 08:36:59;;;;;;;59.23;42.40;;;5.20;99.90;;;;;;5066110;28;20235;-52
2022/11/28 08:39:27;;;;;;;101.80;62.37;;;5.20;99.90;;;;;;5070023;28;20895;-53
2022/11/28 08:41:57;;;;;;;99.43;41.63;;;5.30;99.90;;;;;;5068783;28;20758;-52
2022/11/28 08:44:27;;;;;;;38.13;31.33;;;5.30;99.90;;;;;;5069310;28;20209;-52
2022/11/28 08:46:57;;;;;;;77.33;45.17;;;5.30;99.90;;;;;;5067407;28;20231;-52
2022/11/28 08:49:25;;;;;;;110.47;59.97;;;5.40;99.90;;;;;;5056147;28;20250;-51
2022/11/28 08:51:55;;;;;;;129.17;62.23;;;5.30;99.90;;;;;;5061604;28;20208;-52
2022/11/28 08:54:23;;;;;;;78.90;58.87;;;5.30;99.90;;;;;;5063974;28;20194;-52
2022/11/28 08:56:51;;;;;;;84.47;41.07;;;5.40;99.90;;;;;;5065303;28;20313;-52
2022/11/28 08:59:19;;;;;;;77.40;54.17;;;5.40;99.90;;;;;;5069993;28;20639;-52
2022/11/28 09:01:48;;;;;;;275.03;107.67;;;5.40;99.90;;;;;;5068479;28;20249;-52
2022/11/28 09:04:17;;;;;;;103.73;48.67;;;5.40;99.90;;;;;;5069097;28;20224;-52
2022/11/28 09:06:45;;;;;;;51.27;41.47;;;5.40;99.90;;;;;;5062230;28;20716;-53
2022/11/28 09:09:15;;;;;;;69.47;41.70;;;5.40;99.90;;;;;;5068177;28;20245;-53
2022/11/28 09:11:43;;;;;;;50.00;42.63;;;5.50;99.90;;;;;;5068035;28;20256;-53
2022/11/28 09:14:11;;;;;;;105.07;65.33;;;5.50;99.90;;;;;;5068192;28;20242;-52
2022/11/28 09:16:40;;;;;;;71.13;40.57;;;5.50;99.90;;;;;;5069877;28;20307;-52
2022/11/28 09:19:09;;;;;;;37.13;29.73;;;5.50;99.90;;;;;;5066494;28;20202;-52
2022/11/28 09:21:37;;;;;;;123.10;52.23;;;5.40;99.90;;;;;;5066056;28;20263;-53
2022/11/28 09:24:07;;;;;;;97.17;53.83;;;5.40;99.90;;;;;;5060325;28;20668;-52
2022/11/28 09:26:37;;;;;;;120.90;62.63;;;5.40;99.90;;;;;;5067454;28;20223;-52
2022/11/28 09:29:05;;;;;;;164.97;61.70;;;5.40;99.90;;;;;;5069349;28;20242;-52
2022/11/28 09:31:33;;;;;;;140.40;75.23;;;5.40;99.90;;;;;;5067600;28;20677;-53
2022/11/28 09:34:02;;;;;;;173.57;73.10;;;5.40;99.90;;;;;;5068840;28;20212;-52
2022/11/28 09:36:32;;;;;;;293.13;144.67;;;5.40;99.90;;;;;;5063967;28;20327;-52
2022/11/28 09:39:01;;;;;;;39.97;29.90;;;5.40;99.90;;;;;;5068883;28;20201;-53
2022/11/28 09:41:52;;;;;;;146.77;71.07;;;5.50;99.90;;;;;;5064418;28;20206;-52
2022/11/28 09:44:25;;;;;;;43.37;37.50;;;5.50;99.90;;;;;;5067731;28;20262;-51
2022/11/28 09:46:56;;;;;;;87.67;48.93;;;5.60;99.90;;;;;;5067634;28;20340;-52
2022/11/28 09:49:31;;;;;;;66.70;41.70;;;5.60;99.90;;;;;;5059301;28;20240;-51
2022/11/28 09:52:16;;;;;;;53.33;37.10;;;5.60;99.90;;;;;;5066273;28;20260;-50
2022/11/28 09:54:51;;;;;;;147.90;78.03;;;5.60;99.90;;;;;;5059232;28;20584;-54
2022/11/28 09:57:31;;;;;;;130.37;71.13;;;5.60;99.90;;;;;;5063474;28;20262;-51
2022/11/28 09:59:59;;;;;;;1046.60;244.27;;;5.60;99.90;;;;;;5068457;28;20315;-51
2022/11/28 10:02:35;;;;;;;571.87;155.07;;;5.60;99.90;;;;;;5067134;28;20329;-51
2022/11/28 10:05:11;;;;;;;133.07;61.57;;;5.60;99.90;;;;;;5059866;28;20311;-52
2022/11/28 10:07:52;;;;;;;266.40;77.77;;;5.50;99.90;;;;;;5063683;28;20290;-54
2022/11/28 10:10:30;;;;;;;125.80;52.10;;;5.60;99.90;;;;;;5067531;28;20216;-54
2022/11/28 10:13:06;;;;;;;706.07;281.07;;;5.60;99.90;;;;;;5063976;28;20267;-53
2022/11/28 10:15:42;;;;;;;190.53;107.00;;;5.60;99.90;;;;;;5068700;28;20243;-53
2022/11/28 10:18:30;;;;;;;900.67;251.57;;;5.60;99.90;;;;;;5066487;28;20240;-53
2022/11/28 10:21:02;;;;;;;253.50;89.17;;;5.60;99.90;;;;;;5068407;28;20240;-53
2022/11/28 10:23:38;;;;;;;386.93;102.43;;;5.60;99.90;;;;;;5067260;28;20302;-53
2022/11/28 10:26:11;;;;;;;381.43;130.03;;;5.60;99.90;;;;;;5068324;28;20245;-53
2022/11/28 10:28:45;;;;;;;336.50;107.57;;;5.60;99.90;;;;;;5068044;28;20288;-53
2022/11/28 10:31:19;;;;;;;496.97;167.10;;;5.70;99.90;;;;;;5068393;28;20197;-53
2022/11/28 10:33:52;;;;;;;875.50;285.20;;;5.70;99.90;;;;;;5067280;28;20255;-53
2022/11/28 10:36:24;;;;;;;674.83;197.60;;;5.70;99.90;;;;;;5062839;28;20258;-54
2022/11/28 10:38:53;;;;;;;251.10;97.30;;;5.70;99.90;;;;;;5064719;28;20219;-53
2022/11/28 10:41:28;;;;;;;86.20;56.60;;;5.80;99.90;;;;;;5065397;28;20236;-54
2022/11/28 10:44:03;;;;;;;94.80;64.70;;;5.80;99.90;;;;;;5056882;28;20250;-53
2022/11/28 10:46:47;;;;;;;105.43;48.07;;;5.80;99.90;;;;;;5064886;28;20244;-53
2022/11/28 10:49:33;;;;;;;261.30;98.17;;;5.90;99.90;;;;;;5066675;28;20293;-53
2022/11/28 10:52:09;;;;;;;149.00;63.67;;;5.90;99.90;;;;;;5067151;28;20217;-53
2022/11/28 10:54:57;;;;;;;93.30;61.37;;;5.80;99.90;;;;;;5064148;28;20241;-53
2022/11/28 10:57:31;;;;;;;74.30;44.17;;;5.80;99.90;;;;;;5067850;28;20291;-53
2022/11/28 11:00:05;;;;;;;299.27;79.50;;;5.90;99.90;;;;;;5067567;28;20232;-53
2022/11/28 11:02:39;;;;;;;160.67;83.93;;;5.90;99.90;;;;;;5062207;28;20231;-53
2022/11/28 11:05:13;;;;;;;467.40;148.07;;;5.90;99.90;;;;;;5068446;28;20903;-53
2022/11/28 11:07:47;;;;;;;558.37;126.93;;;5.90;99.90;;;;;;5071336;28;20247;-53
2022/11/28 11:10:18;;;;;;;559.03;164.53;;;5.90;99.90;;;;;;5070669;28;20266;-53
2022/11/28 11:12:47;;;;;;;448.77;194.87;;;5.90;99.90;;;;;;5071176;28;20829;-53
2022/11/28 11:15:19;;;;;;;258.83;119.43;;;5.90;99.90;;;;;;5071023;28;20322;-52
2022/11/28 11:17:49;;;;;;;459.30;153.50;;;6.00;99.90;;;;;;5071984;28;20295;-53
2022/11/28 11:20:36;;;;;;;53.93;33.50;;;6.00;99.90;;;;;;5070608;28;20261;-52
2022/11/28 11:23:13;;;;;;;152.57;75.23;;;6.00;99.90;;;;;;5071423;28;20290;-53
2022/11/28 11:25:48;;;;;;;126.40;73.10;;;6.10;99.90;;;;;;5070256;28;20321;-53
2022/11/28 11:28:41;;;;;;;615.73;228.87;;;6.10;99.90;;;;;;5069711;28;20283;-53
2022/11/28 11:31:19;;;;;;;112.73;66.00;;;6.10;99.90;;;;;;5062099;28;20246;-53
2022/11/28 11:33:50;;;;;;;85.97;49.37;;;6.10;99.90;;;;;;5070432;28;20212;-53
2022/11/28 11:36:27;;;;;;;1267.07;243.37;;;6.10;99.90;;;;;;5069515;28;20322;-53
2022/11/28 11:39:22;;;;;;;673.73;171.13;;;6.10;99.90;;;;;;5059193;28;20309;-53
2022/11/28 11:42:08;;;;;;;109.47;59.97;;;6.10;99.90;;;;;;5068275;28;20295;-53
2022/11/28 11:44:37;;;;;;;104.40;71.23;;;6.10;99.90;;;;;;5077263;28;20251;-53
2022/11/28 11:47:08;;;;;;;277.60;95.90;;;6.20;99.90;;;;;;5070876;28;20311;-53
2022/11/28 11:49:39;;;;;;;592.53;170.43;;;6.20;99.90;;;;;;5068211;28;20297;-52
2022/11/28 11:52:17;;;;;;;466.13;136.60;;;6.20;99.90;;;;;;5072333;28;20212;-52
2022/11/28 11:55:02;;;;;;;202.23;74.50;;;6.20;99.90;;;;;;5065868;28;20247;-52
2022/11/28 11:57:36;;;;;;;171.37;85.73;;;6.20;99.90;;;;;;5075813;28;20228;-53
2022/11/28 12:00:10;;;;;;;512.30;160.00;;;6.20;99.90;;;;;;5074334;28;20292;-52
2022/11/28 12:02:45;;;;;;;273.60;86.77;;;6.20;99.90;;;;;;5068349;28;20204;-52
2022/11/28 12:05:16;;;;;;;181.60;79.37;;;6.20;99.90;;;;;;5069660;28;20217;-53
2022/11/28 12:07:54;;;;;;;352.23;153.97;;;6.30;99.90;;;;;;5068827;28;20324;-53
2022/11/28 12:10:26;;;;;;;119.13;59.87;;;6.20;99.90;;;;;;5068850;28;20223;-53
2022/11/28 12:12:54;;;;;;;809.87;229.90;;;6.20;99.90;;;;;;5067157;28;20949;-53
2022/11/28 12:15:33;;;;;;;92.77;59.47;;;6.20;99.90;;;;;;5069867;28;20241;-53
2022/11/28 12:18:14;;;;;;;499.80;117.13;;;6.20;99.90;;;;;;5069519;28;20288;-53
2022/11/28 12:20:56;;;;;;;509.87;141.13;;;6.20;99.90;;;;;;5068978;28;20303;-53
2022/11/28 12:23:51;;;;;;;481.33;176.73;;;6.30;99.90;;;;;;5066171;28;20766;-53
2022/11/28 12:26:27;;;;;;;58.83;42.37;;;6.30;99.90;;;;;;5067400;28;20761;-53
2022/11/28 12:29:08;;;;;;;146.37;83.77;;;6.30;99.90;;;;;;5067222;28;20684;-53
2022/11/28 12:31:45;;;;;;;763.97;315.47;;;6.30;99.90;;;;;;5063175;28;20663;-52
2022/11/28 12:34:23;;;;;;;284.43;107.50;;;6.30;99.90;;;;;;5068923;28;20292;-53
2022/11/28 12:36:58;;;;;;;70.93;52.30;;;6.20;99.90;;;;;;5067428;28;20299;-53
2022/11/28 12:39:39;;;;;;;258.50;105.60;;;6.30;99.90;;;;;;5065664;28;20236;-53
2022/11/28 12:42:26;;;;;;;194.27;97.53;;;6.40;99.90;;;;;;5066118;28;20214;-53
2022/11/28 12:45:20;;;;;;;51.47;43.90;;;6.50;99.90;;;;;;5069506;28;20209;-53
2022/11/28 12:47:54;;;;;;;81.33;64.43;;;6.50;99.90;;;;;;5060014;28;20263;-53
2022/11/28 12:50:33;;;;;;;610.17;216.43;;;6.40;99.90;;;;;;5068396;28;20875;-53
2022/11/28 12:53:27;;;;;;;87.10;58.17;;;6.40;99.90;;;;;;5066721;28;20201;-52
2022/11/28 12:56:06;;;;;;;148.33;79.30;;;6.40;99.90;;;;;;5065915;28;20260;-53
2022/11/28 12:58:40;;;;;;;201.93;75.13;;;6.40;99.90;;;;;;5065001;28;20240;-52
2022/11/28 13:01:29;;;;;;;212.13;80.73;;;6.40;99.90;;;;;;5068097;28;20332;-53